QLK337D YMIA-YPAD
Flight info
| Callsign | QLK337D |
|---|---|
| Flight time | 0h 40m |
| Altitude | 20000 |
| Route | MIA H309 AD |
| Aircraft | DH8D/M-SDE2E3FGRY/H |
Departure
| Time | 2026-05-05 04:55 |
|---|---|
| Airport | Mildura Airport (YMIA) |
Arrival
| Time | 2026-05-05 05:35 |
|---|---|
| Airport | Adelaide International Airport (YPAD) |
| Time | Latitude | Longitude | Altitude | Speed | Heading |
|---|---|---|---|---|---|
| 2026-05-05 04:33 | -34.23209 | 142.08626 | 189 ft | 0 kts | 336° |
| 2026-05-05 04:34 | -34.23025 | 142.08539 | 188 ft | 0 kts | 229° |
| 2026-05-05 04:49 | -34.23035 | 142.08533 | 187 ft | 2 kts | 179° |
| 2026-05-05 04:49 | -34.23043 | 142.08545 | 187 ft | 2 kts | 101° |
| 2026-05-05 04:49 | -34.23040 | 142.08561 | 187 ft | 1 kts | 56° |
| 2026-05-05 04:50 | -34.23028 | 142.08571 | 187 ft | 2 kts | 27° |
| 2026-05-05 04:50 | -34.23011 | 142.08577 | 187 ft | 2 kts | 13° |
| 2026-05-05 04:50 | -34.22991 | 142.08583 | 187 ft | 4 kts | 14° |
| 2026-05-05 04:50 | -34.22957 | 142.08593 | 186 ft | 5 kts | 14° |
| 2026-05-05 04:51 | -34.22915 | 142.08606 | 186 ft | 6 kts | 14° |
| 2026-05-05 04:51 | -34.22866 | 142.08624 | 185 ft | 7 kts | 27° |
| 2026-05-05 04:51 | -34.22859 | 142.08680 | 184 ft | 7 kts | 100° |
| 2026-05-05 04:51 | -34.22868 | 142.08738 | 184 ft | 6 kts | 102° |
| 2026-05-05 04:52 | -34.22879 | 142.08791 | 184 ft | 6 kts | 104° |
| 2026-05-05 04:52 | -34.22889 | 142.08839 | 184 ft | 5 kts | 104° |
| 2026-05-05 04:52 | -34.22900 | 142.08893 | 184 ft | 7 kts | 102° |
| 2026-05-05 04:52 | -34.22914 | 142.08976 | 183 ft | 14 kts | 102° |
| 2026-05-05 04:53 | -34.22939 | 142.09117 | 181 ft | 17 kts | 102° |
| 2026-05-05 04:53 | -34.22962 | 142.09249 | 181 ft | 14 kts | 101° |
| 2026-05-05 04:53 | -34.22980 | 142.09355 | 181 ft | 11 kts | 102° |
| 2026-05-05 04:53 | -34.23018 | 142.09421 | 181 ft | 7 kts | 125° |
| 2026-05-05 04:54 | -34.22993 | 142.09431 | 181 ft | 5 kts | 290° |
| 2026-05-05 04:54 | -34.22991 | 142.09422 | 181 ft | 6 kts | 285° |
| 2026-05-05 04:54 | -34.22961 | 142.09268 | 181 ft | 39 kts | 281° |
| 2026-05-05 04:54 | -34.22847 | 142.08572 | 185 ft | 123 kts | 281° |
| 2026-05-05 04:55 | -34.22628 | 142.07368 | 368 ft | 156 kts | 282° |
| 2026-05-05 04:55 | -34.22352 | 142.06077 | 968 ft | 163 kts | 281° |
| 2026-05-05 04:55 | -34.22517 | 142.04747 | 1547 ft | 165 kts | 242° |
| 2026-05-05 04:55 | -34.23333 | 142.03801 | 2092 ft | 168 kts | 210° |
| 2026-05-05 04:56 | -34.24021 | 142.02724 | 2712 ft | 167 kts | 248° |
| 2026-05-05 04:56 | -34.24038 | 142.01331 | 3264 ft | 173 kts | 272° |
| 2026-05-05 04:56 | -34.24210 | 141.99916 | 3874 ft | 176 kts | 254° |
| 2026-05-05 04:56 | -34.24554 | 141.98338 | 3996 ft | 210 kts | 254° |
| 2026-05-05 04:57 | -34.24956 | 141.96527 | 4203 ft | 233 kts | 254° |
| 2026-05-05 04:57 | -34.25381 | 141.94612 | 4718 ft | 239 kts | 253° |
| 2026-05-05 04:57 | -34.25819 | 141.92630 | 5287 ft | 243 kts | 253° |
| 2026-05-05 04:57 | -34.26258 | 141.90643 | 5857 ft | 247 kts | 253° |
| 2026-05-05 04:58 | -34.26701 | 141.88631 | 6437 ft | 249 kts | 253° |
| 2026-05-05 04:58 | -34.27145 | 141.86610 | 7026 ft | 251 kts | 254° |
| 2026-05-05 04:58 | -34.27592 | 141.84571 | 7613 ft | 253 kts | 254° |
| 2026-05-05 04:58 | -34.28045 | 141.82502 | 8198 ft | 255 kts | 254° |
| 2026-05-05 04:59 | -34.28498 | 141.80430 | 8755 ft | 258 kts | 254° |
| 2026-05-05 04:59 | -34.28955 | 141.78335 | 9305 ft | 260 kts | 253° |
| 2026-05-05 04:59 | -34.29417 | 141.76222 | 9856 ft | 263 kts | 253° |
| 2026-05-05 04:59 | -34.29900 | 141.74013 | 9946 ft | 282 kts | 254° |
| 2026-05-05 05:00 | -34.30404 | 141.71697 | 10448 ft | 284 kts | 254° |
| 2026-05-05 05:00 | -34.30914 | 141.69354 | 10859 ft | 286 kts | 254° |
| 2026-05-05 05:00 | -34.31410 | 141.67068 | 11338 ft | 289 kts | 254° |
| 2026-05-05 05:00 | -34.31941 | 141.64624 | 11419 ft | 301 kts | 254° |
| 2026-05-05 05:01 | -34.32459 | 141.62251 | 12207 ft | 289 kts | 255° |
| 2026-05-05 05:01 | -34.32963 | 141.59927 | 12728 ft | 287 kts | 255° |
| 2026-05-05 05:01 | -34.33455 | 141.57539 | 12987 ft | 295 kts | 256° |
| 2026-05-05 05:01 | -34.33961 | 141.55099 | 13306 ft | 297 kts | 254° |
| 2026-05-05 05:02 | -34.34486 | 141.52724 | 13980 ft | 288 kts | 254° |
| 2026-05-05 05:02 | -34.34998 | 141.50388 | 14220 ft | 296 kts | 254° |
| 2026-05-05 05:02 | -34.35516 | 141.48011 | 14908 ft | 284 kts | 255° |
| 2026-05-05 05:02 | -34.36006 | 141.45704 | 15180 ft | 292 kts | 255° |
| 2026-05-05 05:03 | -34.36482 | 141.43273 | 15353 ft | 298 kts | 256° |
| 2026-05-05 05:03 | -34.36944 | 141.40876 | 15928 ft | 291 kts | 256° |
| 2026-05-05 05:03 | -34.37379 | 141.38491 | 16326 ft | 291 kts | 256° |
| 2026-05-05 05:03 | -34.37916 | 141.36144 | 16731 ft | 291 kts | 253° |
| 2026-05-05 05:04 | -34.38462 | 141.33797 | 17128 ft | 290 kts | 254° |
| 2026-05-05 05:04 | -34.38997 | 141.31442 | 17448 ft | 293 kts | 255° |
| 2026-05-05 05:04 | -34.39533 | 141.29049 | 17722 ft | 297 kts | 255° |
| 2026-05-05 05:04 | -34.40068 | 141.26625 | 18007 ft | 299 kts | 255° |
| 2026-05-05 05:05 | -34.40601 | 141.24186 | 18303 ft | 301 kts | 255° |
| 2026-05-05 05:05 | -34.41134 | 141.21729 | 18600 ft | 303 kts | 255° |
| 2026-05-05 05:05 | -34.41666 | 141.19261 | 18903 ft | 304 kts | 255° |
| 2026-05-05 05:05 | -34.42199 | 141.16779 | 19212 ft | 304 kts | 255° |
| 2026-05-05 05:06 | -34.42730 | 141.14300 | 19511 ft | 305 kts | 255° |
| 2026-05-05 05:06 | -34.43261 | 141.11806 | 19809 ft | 306 kts | 255° |
| 2026-05-05 05:06 | -34.43790 | 141.09319 | 20099 ft | 306 kts | 255° |
| 2026-05-05 05:06 | -34.44327 | 141.06793 | 20172 ft | 314 kts | 255° |
| 2026-05-05 05:07 | -34.44876 | 141.04202 | 20193 ft | 321 kts | 255° |
| 2026-05-05 05:07 | -34.45441 | 141.01533 | 20208 ft | 327 kts | 255° |
| 2026-05-05 05:07 | -34.46010 | 140.98842 | 20211 ft | 332 kts | 255° |
| 2026-05-05 05:07 | -34.46585 | 140.96117 | 20196 ft | 337 kts | 255° |
| 2026-05-05 05:08 | -34.47169 | 140.93346 | 20188 ft | 340 kts | 255° |
| 2026-05-05 05:08 | -34.47762 | 140.90527 | 20200 ft | 342 kts | 255° |
| 2026-05-05 05:08 | -34.48354 | 140.87712 | 20208 ft | 343 kts | 255° |
| 2026-05-05 05:08 | -34.48947 | 140.84887 | 20197 ft | 344 kts | 255° |
| 2026-05-05 05:09 | -34.49540 | 140.82052 | 20185 ft | 345 kts | 255° |
| 2026-05-05 05:09 | -34.50130 | 140.79233 | 20206 ft | 345 kts | 255° |
| 2026-05-05 05:09 | -34.50720 | 140.76410 | 20199 ft | 346 kts | 255° |
| 2026-05-05 05:09 | -34.51311 | 140.73577 | 20187 ft | 347 kts | 255° |
| 2026-05-05 05:10 | -34.51901 | 140.70745 | 20197 ft | 347 kts | 255° |
| 2026-05-05 05:10 | -34.52491 | 140.67910 | 20207 ft | 347 kts | 255° |
| 2026-05-05 05:10 | -34.53080 | 140.65076 | 20187 ft | 348 kts | 255° |
| 2026-05-05 05:10 | -34.53669 | 140.62239 | 20185 ft | 348 kts | 255° |
| 2026-05-05 05:11 | -34.54258 | 140.59398 | 20205 ft | 348 kts | 255° |
| 2026-05-05 05:11 | -34.54846 | 140.56557 | 20206 ft | 348 kts | 255° |
| 2026-05-05 05:11 | -34.55433 | 140.53718 | 20182 ft | 349 kts | 255° |
| 2026-05-05 05:11 | -34.56021 | 140.50870 | 20199 ft | 349 kts | 255° |
| 2026-05-05 05:12 | -34.56609 | 140.48018 | 20208 ft | 349 kts | 255° |
| 2026-05-05 05:12 | -34.57196 | 140.45165 | 20188 ft | 349 kts | 255° |
| 2026-05-05 05:12 | -34.57782 | 140.42316 | 20186 ft | 350 kts | 255° |
| 2026-05-05 05:12 | -34.58367 | 140.39468 | 20211 ft | 349 kts | 255° |
| 2026-05-05 05:13 | -34.58954 | 140.36611 | 20198 ft | 349 kts | 255° |
| 2026-05-05 05:13 | -34.59538 | 140.33760 | 20181 ft | 349 kts | 256° |
| 2026-05-05 05:13 | -34.60124 | 140.30896 | 20193 ft | 349 kts | 256° |
| 2026-05-05 05:13 | -34.60704 | 140.28046 | 20204 ft | 348 kts | 256° |
| 2026-05-05 05:14 | -34.61275 | 140.25183 | 20201 ft | 349 kts | 256° |
| 2026-05-05 05:14 | -34.61846 | 140.22302 | 20191 ft | 349 kts | 256° |
| 2026-05-05 05:14 | -34.62414 | 140.19439 | 20199 ft | 349 kts | 256° |
| 2026-05-05 05:14 | -34.62981 | 140.16574 | 20203 ft | 349 kts | 256° |
| 2026-05-05 05:15 | -34.63549 | 140.13706 | 20195 ft | 350 kts | 256° |
| 2026-05-05 05:15 | -34.64120 | 140.10817 | 20192 ft | 350 kts | 256° |
| 2026-05-05 05:15 | -34.64687 | 140.07949 | 20199 ft | 350 kts | 256° |
| 2026-05-05 05:15 | -34.65254 | 140.05076 | 20202 ft | 350 kts | 256° |
| 2026-05-05 05:16 | -34.65787 | 140.02371 | 20198 ft | 350 kts | 256° |
| 2026-05-05 05:16 | -34.66352 | 139.99500 | 20196 ft | 350 kts | 256° |
| 2026-05-05 05:16 | -34.66917 | 139.96629 | 20185 ft | 351 kts | 256° |
| 2026-05-05 05:16 | -34.67482 | 139.93755 | 19822 ft | 349 kts | 256° |
| 2026-05-05 05:17 | -34.68039 | 139.90927 | 19492 ft | 343 kts | 256° |
| 2026-05-05 05:17 | -34.68591 | 139.88125 | 19026 ft | 342 kts | 256° |
| 2026-05-05 05:17 | -34.69143 | 139.85326 | 18653 ft | 335 kts | 256° |
| 2026-05-05 05:17 | -34.69682 | 139.82594 | 18354 ft | 329 kts | 257° |
| 2026-05-05 05:18 | -34.70209 | 139.79916 | 18028 ft | 325 kts | 257° |
| 2026-05-05 05:18 | -34.70732 | 139.77241 | 17700 ft | 329 kts | 256° |
| 2026-05-05 05:18 | -34.71265 | 139.74499 | 17341 ft | 334 kts | 256° |
| 2026-05-05 05:18 | -34.71805 | 139.71719 | 16974 ft | 338 kts | 256° |
| 2026-05-05 05:19 | -34.72345 | 139.68943 | 16600 ft | 338 kts | 256° |
| 2026-05-05 05:19 | -34.72883 | 139.66172 | 16233 ft | 337 kts | 256° |
| 2026-05-05 05:19 | -34.73421 | 139.63398 | 15863 ft | 336 kts | 256° |
| 2026-05-05 05:19 | -34.73959 | 139.60622 | 15497 ft | 335 kts | 256° |
| 2026-05-05 05:20 | -34.74490 | 139.57876 | 15116 ft | 334 kts | 256° |
| 2026-05-05 05:20 | -34.75027 | 139.55099 | 14558 ft | 333 kts | 256° |
| 2026-05-05 05:20 | -34.75551 | 139.52387 | 14143 ft | 324 kts | 256° |
| 2026-05-05 05:20 | -34.76058 | 139.49760 | 13786 ft | 315 kts | 256° |
| 2026-05-05 05:21 | -34.76550 | 139.47203 | 13444 ft | 307 kts | 256° |
| 2026-05-05 05:21 | -34.77033 | 139.44689 | 13116 ft | 301 kts | 256° |
| 2026-05-05 05:21 | -34.77506 | 139.42218 | 12793 ft | 296 kts | 256° |
| 2026-05-05 05:21 | -34.77773 | 139.39760 | 12477 ft | 291 kts | 266° |
| 2026-05-05 05:22 | -34.77834 | 139.37320 | 12161 ft | 287 kts | 268° |
| 2026-05-05 05:22 | -34.77883 | 139.34901 | 11849 ft | 283 kts | 268° |
| 2026-05-05 05:22 | -34.77931 | 139.32504 | 11542 ft | 282 kts | 268° |
| 2026-05-05 05:22 | -34.77979 | 139.30128 | 11235 ft | 281 kts | 268° |
| 2026-05-05 05:23 | -34.78029 | 139.27747 | 10929 ft | 280 kts | 268° |
| 2026-05-05 05:23 | -34.78080 | 139.25376 | 10620 ft | 279 kts | 268° |
| 2026-05-05 05:23 | -34.78131 | 139.23017 | 10317 ft | 279 kts | 268° |
| 2026-05-05 05:23 | -34.78183 | 139.20668 | 10017 ft | 278 kts | 268° |
| 2026-05-05 05:24 | -34.78234 | 139.18313 | 9715 ft | 277 kts | 268° |
| 2026-05-05 05:24 | -34.78286 | 139.15956 | 9411 ft | 276 kts | 268° |
| 2026-05-05 05:24 | -34.78336 | 139.13627 | 9110 ft | 275 kts | 268° |
| 2026-05-05 05:24 | -34.78387 | 139.11310 | 8809 ft | 275 kts | 268° |
| 2026-05-05 05:25 | -34.78437 | 139.08984 | 8509 ft | 273 kts | 268° |
| 2026-05-05 05:25 | -34.78487 | 139.06679 | 8208 ft | 271 kts | 268° |
| 2026-05-05 05:25 | -34.78536 | 139.04399 | 7913 ft | 268 kts | 268° |
| 2026-05-05 05:25 | -34.78584 | 139.02141 | 7623 ft | 265 kts | 268° |
| 2026-05-05 05:26 | -34.78631 | 138.99901 | 7336 ft | 263 kts | 268° |
| 2026-05-05 05:26 | -34.78677 | 138.97691 | 7044 ft | 258 kts | 268° |
| 2026-05-05 05:26 | -34.78723 | 138.95540 | 6763 ft | 251 kts | 268° |
| 2026-05-05 05:26 | -34.78767 | 138.93441 | 6493 ft | 245 kts | 268° |
| 2026-05-05 05:27 | -34.78809 | 138.91386 | 6228 ft | 239 kts | 268° |
| 2026-05-05 05:27 | -34.78850 | 138.89376 | 5968 ft | 234 kts | 268° |
| 2026-05-05 05:27 | -34.78927 | 138.85472 | 5469 ft | 226 kts | 268° |
| 2026-05-05 05:28 | -34.78964 | 138.83581 | 5224 ft | 221 kts | 268° |
| 2026-05-05 05:28 | -34.78999 | 138.81728 | 4987 ft | 217 kts | 268° |
| 2026-05-05 05:28 | -34.79034 | 138.79911 | 4752 ft | 213 kts | 267° |
| 2026-05-05 05:28 | -34.79067 | 138.78130 | 4521 ft | 209 kts | 267° |
| 2026-05-05 05:29 | -34.79125 | 138.76371 | 4281 ft | 204 kts | 261° |
| 2026-05-05 05:29 | -34.79702 | 138.74859 | 4073 ft | 195 kts | 231° |
| 2026-05-05 05:29 | -34.80543 | 138.73593 | 3887 ft | 188 kts | 231° |
| 2026-05-05 05:29 | -34.81332 | 138.72378 | 3795 ft | 176 kts | 229° |
| 2026-05-05 05:30 | -34.82177 | 138.71340 | 3618 ft | 167 kts | 223° |
| 2026-05-05 05:30 | -34.82984 | 138.70321 | 3401 ft | 164 kts | 228° |
| 2026-05-05 05:30 | -34.83731 | 138.69271 | 3214 ft | 159 kts | 229° |
| 2026-05-05 05:30 | -34.84469 | 138.68230 | 2978 ft | 159 kts | 229° |
| 2026-05-05 05:31 | -34.85188 | 138.67201 | 2756 ft | 158 kts | 229° |
| 2026-05-05 05:31 | -34.85909 | 138.66162 | 2567 ft | 156 kts | 229° |
| 2026-05-05 05:31 | -34.86637 | 138.65110 | 2314 ft | 154 kts | 229° |
| 2026-05-05 05:31 | -34.87347 | 138.64085 | 2069 ft | 148 kts | 229° |
| 2026-05-05 05:32 | -34.87994 | 138.63150 | 1832 ft | 138 kts | 229° |
| 2026-05-05 05:32 | -34.88598 | 138.62272 | 1626 ft | 128 kts | 229° |
| 2026-05-05 05:32 | -34.89156 | 138.61454 | 1470 ft | 122 kts | 230° |
| 2026-05-05 05:32 | -34.89690 | 138.60666 | 1329 ft | 119 kts | 230° |
| 2026-05-05 05:33 | -34.90217 | 138.59876 | 1144 ft | 122 kts | 230° |
| 2026-05-05 05:33 | -34.90749 | 138.59057 | 1065 ft | 124 kts | 231° |
| 2026-05-05 05:33 | -34.91296 | 138.58236 | 917 ft | 125 kts | 230° |
| 2026-05-05 05:33 | -34.91875 | 138.57422 | 759 ft | 127 kts | 228° |
| 2026-05-05 05:34 | -34.92444 | 138.56601 | 601 ft | 127 kts | 229° |
| 2026-05-05 05:34 | -34.93041 | 138.55799 | 408 ft | 127 kts | 228° |
| 2026-05-05 05:34 | -34.93613 | 138.54991 | 194 ft | 127 kts | 229° |
| 2026-05-05 05:34 | -34.94165 | 138.54169 | 43 ft | 123 kts | 230° |
| 2026-05-05 05:35 | -34.94655 | 138.53461 | 36 ft | 89 kts | 230° |
| 2026-05-05 05:35 | -34.94903 | 138.53099 | 33 ft | 22 kts | 229° |
| 2026-05-05 05:35 | -34.94944 | 138.53010 | 33 ft | 8 kts | 287° |
| 2026-05-05 05:35 | -34.94895 | 138.52987 | 33 ft | 8 kts | 5° |
| 2026-05-05 05:36 | -34.94839 | 138.53010 | 33 ft | 8 kts | 21° |
| 2026-05-05 05:36 | -34.94782 | 138.53035 | 33 ft | 9 kts | 19° |
| 2026-05-05 05:36 | -34.94721 | 138.53062 | 33 ft | 9 kts | 21° |
| 2026-05-05 05:36 | -34.94659 | 138.53090 | 33 ft | 9 kts | 19° |
| 2026-05-05 05:37 | -34.94594 | 138.53118 | 34 ft | 9 kts | 19° |
| 2026-05-05 05:37 | -34.94537 | 138.53143 | 35 ft | 7 kts | 20° |
| 2026-05-05 05:37 | -34.94504 | 138.53188 | 36 ft | 8 kts | 88° |
| 2026-05-05 05:37 | -34.94520 | 138.53263 | 36 ft | 9 kts | 92° |
| 2026-05-05 05:38 | -34.94495 | 138.53358 | 36 ft | 15 kts | 57° |
| 2026-05-05 05:38 | -34.94421 | 138.53467 | 36 ft | 16 kts | 49° |
| 2026-05-05 05:38 | -34.94352 | 138.53568 | 36 ft | 14 kts | 51° |
| 2026-05-05 05:38 | -34.94285 | 138.53656 | 37 ft | 12 kts | 25° |
| 2026-05-05 05:39 | -34.94225 | 138.53617 | 38 ft | 9 kts | 286° |
| 2026-05-05 05:39 | -34.94212 | 138.53562 | 38 ft | 5 kts | 326° |
| 2026-05-05 05:39 | -34.94187 | 138.53542 | 39 ft | 3 kts | 322° |
| 2026-05-05 05:39 | -34.94174 | 138.53530 | 39 ft | 1 kts | 320° |
| 2026-05-05 05:40 | -34.94167 | 138.53522 | 40 ft | 1 kts | 320° |
| 2026-05-05 05:40 | -34.94163 | 138.53518 | 40 ft | 0 kts | 320° |
| 2026-05-05 05:47 | -34.94162 | 138.53518 | 40 ft | 0 kts | 320° |